createdAt,value
2022-09-21T00:01:39.366Z,10.49
2022-09-21T00:04:07.868Z,10.47
2022-09-21T00:06:37.322Z,10.45
2022-09-21T00:09:08.217Z,10.40
2022-09-21T00:11:38.181Z,10.38
2022-09-21T00:14:10.587Z,10.36
2022-09-21T00:16:39.842Z,10.34
2022-09-21T00:19:08.261Z,10.31
2022-09-21T00:21:38.153Z,10.28
2022-09-21T00:24:07.517Z,10.26
2022-09-21T00:26:37.329Z,10.22
2022-09-21T00:29:06.932Z,10.20
2022-09-21T00:31:35.599Z,10.17
2022-09-21T00:34:07.743Z,10.16
2022-09-21T00:36:36.380Z,10.14
2022-09-21T00:39:05.542Z,10.13
2022-09-21T00:41:36.954Z,10.13
2022-09-21T00:44:32.211Z,10.08
2022-09-21T00:47:08.708Z,10.08
2022-09-21T00:49:38.065Z,10.06
2022-09-21T00:52:08.727Z,10.04
2022-09-21T00:54:43.514Z,10.02
2022-09-21T00:57:13.691Z,9.99
2022-09-21T00:59:44.365Z,9.98
2022-09-21T01:02:13.166Z,9.95
2022-09-21T01:04:41.411Z,9.90
2022-09-21T01:07:18.533Z,9.89
2022-09-21T01:09:51.738Z,9.87
2022-09-21T01:12:39.688Z,9.86
2022-09-21T01:15:22.595Z,9.83
2022-09-21T01:18:00.560Z,9.81
2022-09-21T01:20:57.613Z,9.78
2022-09-21T01:23:47.011Z,9.77
2022-09-21T01:26:32.835Z,9.75
2022-09-21T01:29:21.319Z,9.72
2022-09-21T01:31:56.538Z,9.70
2022-09-21T01:34:32.065Z,9.70
2022-09-21T01:37:07.106Z,9.69
2022-09-21T01:39:37.063Z,9.67
2022-09-21T01:42:08.532Z,9.65
2022-09-21T01:44:41.123Z,9.65
2022-09-21T01:47:13.005Z,9.63
2022-09-21T01:49:46.648Z,9.60
2022-09-21T01:52:20.919Z,9.60
2022-09-21T01:54:55.046Z,9.59
2022-09-21T01:57:30.666Z,9.60
2022-09-21T02:00:02.659Z,9.57
2022-09-21T02:02:38.310Z,9.58
2022-09-21T02:05:08.141Z,9.58
2022-09-21T02:07:39.401Z,9.57
2022-09-21T02:10:11.059Z,9.55
2022-09-21T02:12:39.726Z,9.53
2022-09-21T02:15:11.333Z,9.50
2022-09-21T02:17:54.750Z,9.48
2022-09-21T02:20:29.866Z,9.46
2022-09-21T02:23:07.713Z,9.44
2022-09-21T02:25:48.215Z,9.42
2022-09-21T02:28:29.996Z,9.40
2022-09-21T02:31:08.984Z,9.37
2022-09-21T02:33:49.334Z,9.36
2022-09-21T02:36:26.472Z,9.37
2022-09-21T02:39:05.156Z,9.34
2022-09-21T02:41:47.676Z,9.31
2022-09-21T02:44:24.665Z,9.29
2022-09-21T02:46:59.261Z,9.27
2022-09-21T02:49:33.750Z,9.25
2022-09-21T02:52:07.058Z,9.24
2022-09-21T02:54:37.029Z,9.23
2022-09-21T02:57:07.285Z,9.21
2022-09-21T02:59:36.027Z,9.19
2022-09-21T03:02:07.041Z,9.17
2022-09-21T03:04:35.539Z,9.15
2022-09-21T03:07:03.787Z,9.12
2022-09-21T03:09:32.044Z,9.11
2022-09-21T03:12:00.277Z,9.11
2022-09-21T03:14:28.538Z,9.10
2022-09-21T03:16:56.908Z,9.09
2022-09-21T03:19:26.838Z,9.09
2022-09-21T03:21:55.614Z,9.06
2022-09-21T03:24:37.750Z,9.06
2022-09-21T03:27:06.213Z,9.04
2022-09-21T03:29:34.486Z,9.01
2022-09-21T03:32:03.583Z,8.99
2022-09-21T03:34:34.364Z,8.96
2022-09-21T03:37:03.074Z,8.94
2022-09-21T03:39:31.823Z,8.90
2022-09-21T03:42:00.466Z,8.89
2022-09-21T03:44:29.501Z,8.90
2022-09-21T03:46:58.029Z,8.87
2022-09-21T03:49:26.290Z,8.86
2022-09-21T03:51:56.191Z,8.84
2022-09-21T03:54:24.671Z,8.81
2022-09-21T03:56:53.116Z,8.77
2022-09-21T03:59:21.585Z,8.81
2022-09-21T04:01:49.939Z,8.79
2022-09-21T04:04:18.167Z,8.77
2022-09-21T04:06:47.040Z,8.75
2022-09-21T04:09:16.614Z,8.73
2022-09-21T04:11:46.699Z,8.71
2022-09-21T04:14:15.232Z,8.71
2022-09-21T04:16:43.492Z,8.70
2022-09-21T04:19:11.731Z,8.69
2022-09-21T04:21:40.011Z,8.67
2022-09-21T04:24:08.555Z,8.66
2022-09-21T04:26:38.399Z,8.64
2022-09-21T04:29:07.288Z,8.62
2022-09-21T04:31:35.904Z,8.60
2022-09-21T04:34:04.127Z,8.58
2022-09-21T04:36:36.538Z,8.57
2022-09-21T04:39:05.891Z,8.57
2022-09-21T04:41:34.294Z,8.59
2022-09-21T04:44:04.254Z,8.60
2022-09-21T04:46:32.583Z,8.61
2022-09-21T04:49:00.918Z,8.61
2022-09-21T04:51:29.181Z,8.62
2022-09-21T04:53:57.439Z,8.63
2022-09-21T04:56:25.625Z,8.62
2022-09-21T04:58:53.941Z,8.63
2022-09-21T05:01:23.742Z,8.64
2022-09-21T05:03:52.003Z,8.65
2022-09-21T05:06:20.241Z,8.65
2022-09-21T05:09:05.966Z,8.65
2022-09-21T05:11:34.201Z,8.62
2022-09-21T05:14:02.441Z,8.62
2022-09-21T05:16:32.104Z,8.60
2022-09-21T05:19:00.366Z,8.61
2022-09-21T05:21:28.859Z,8.60
2022-09-21T05:23:57.445Z,8.61
2022-09-21T05:26:26.156Z,8.60
2022-09-21T05:28:55.399Z,8.62
2022-09-21T05:31:39.393Z,8.62
2022-09-21T05:34:27.769Z,8.62
2022-09-21T05:37:03.822Z,8.60
2022-09-21T05:39:32.896Z,8.62
2022-09-21T05:42:02.462Z,8.61
2022-09-21T05:44:31.385Z,8.58
2022-09-21T05:47:10.177Z,8.59
2022-09-21T05:49:51.286Z,8.56
2022-09-21T05:52:31.532Z,8.57
2022-09-21T05:55:44.360Z,8.56
2022-09-21T05:58:29.533Z,8.56
2022-09-21T06:01:16.119Z,8.57
2022-09-21T06:03:48.760Z,8.60
2022-09-21T06:06:22.296Z,8.62
2022-09-21T06:08:51.139Z,8.65
2022-09-21T06:11:19.927Z,8.69
2022-09-21T06:13:48.173Z,8.71
2022-09-21T06:16:16.421Z,8.74
2022-09-21T06:18:46.135Z,8.77
2022-09-21T06:21:14.380Z,8.79
2022-09-21T06:23:42.708Z,8.82
2022-09-21T06:26:10.968Z,8.84
2022-09-21T06:28:39.204Z,8.88
2022-09-21T06:31:07.549Z,8.91
2022-09-21T06:33:37.758Z,8.94
2022-09-21T06:36:07.855Z,8.97
2022-09-21T06:38:36.960Z,9.02
2022-09-21T06:41:06.302Z,9.05
2022-09-21T06:43:34.723Z,9.09
2022-09-21T06:46:04.016Z,9.14
2022-09-21T06:48:35.112Z,9.17
2022-09-21T06:51:07.294Z,9.24
2022-09-21T06:53:36.111Z,9.30
2022-09-21T06:56:06.858Z,9.35
2022-09-21T06:58:36.217Z,9.39
2022-09-21T07:01:09.662Z,9.47
2022-09-21T07:03:39.094Z,9.53
2022-09-21T07:06:11.722Z,9.57
2022-09-21T07:11:28.574Z,9.65
2022-09-21T07:13:58.442Z,9.66
2022-09-21T07:16:28.013Z,9.69
2022-09-21T07:18:57.019Z,9.74
2022-09-21T07:21:27.383Z,9.80
2022-09-21T07:23:55.633Z,9.86
2022-09-21T07:26:23.881Z,9.92
2022-09-21T07:28:52.128Z,10.00
2022-09-21T07:31:20.454Z,10.06
2022-09-21T07:33:48.720Z,10.13
2022-09-21T07:36:17.856Z,10.20
2022-09-21T07:38:47.456Z,10.28
2022-09-21T07:41:16.201Z,10.36
2022-09-21T07:43:44.535Z,10.44
2022-09-21T07:46:15.561Z,10.53
2022-09-21T07:48:44.169Z,10.63
2022-09-21T07:51:15.078Z,10.71
2022-09-21T07:53:46.709Z,10.76
2022-09-21T07:56:18.104Z,10.83
2022-09-21T07:59:02.922Z,10.88
2022-09-21T08:01:32.238Z,10.92
2022-09-21T08:04:01.280Z,10.97
2022-09-21T08:06:32.995Z,11.02
2022-09-21T08:09:03.935Z,11.06
2022-09-21T08:11:33.622Z,11.09
2022-09-21T08:14:04.273Z,11.13
2022-09-21T08:16:34.016Z,11.17
2022-09-21T08:19:03.159Z,11.21
2022-09-21T08:21:31.436Z,11.26
2022-09-21T08:23:59.783Z,11.31
2022-09-21T08:26:29.408Z,11.35
2022-09-21T08:28:58.961Z,11.41
2022-09-21T08:31:27.815Z,11.46
2022-09-21T08:33:57.303Z,11.53
2022-09-21T08:36:26.401Z,11.59
2022-09-21T08:38:56.653Z,11.69
2022-09-21T08:41:32.292Z,11.78
2022-09-21T08:44:05.913Z,11.86
2022-09-21T08:46:35.568Z,11.98
2022-09-21T08:49:08.414Z,12.10
2022-09-21T08:51:45.664Z,12.21
2022-09-21T08:54:20.799Z,12.33
2022-09-21T08:57:05.150Z,12.44
2022-09-21T08:59:35.627Z,12.59
2022-09-21T09:02:23.025Z,12.72
2022-09-21T09:05:01.436Z,12.88
2022-09-21T09:07:55.996Z,13.07
2022-09-21T09:10:38.457Z,13.26
2022-09-21T09:13:39.364Z,13.43
2022-09-21T09:16:17.126Z,13.58
2022-09-21T09:18:52.721Z,13.77
2022-09-21T09:21:31.407Z,14.01
2022-09-21T09:24:04.703Z,14.26
2022-09-21T09:26:42.684Z,14.51
2022-09-21T09:29:22.984Z,14.77
2022-09-21T09:31:55.546Z,15.06
2022-09-21T09:34:30.671Z,15.34
2022-09-21T09:37:02.069Z,15.62
2022-09-21T09:39:31.765Z,15.84
2022-09-21T09:42:32.984Z,16.10
2022-09-21T09:45:31.512Z,16.35
2022-09-21T09:48:16.635Z,16.60
2022-09-21T09:50:45.119Z,16.88
2022-09-21T09:53:18.078Z,17.10
2022-09-21T09:55:49.831Z,17.32
2022-09-21T09:58:21.467Z,17.55
2022-09-21T10:00:55.283Z,17.73
2022-09-21T10:03:25.943Z,17.93
2022-09-21T10:05:55.075Z,18.10
2022-09-21T10:08:46.492Z,18.26
2022-09-21T10:11:17.120Z,18.41
2022-09-21T10:13:48.496Z,18.51
2022-09-21T10:16:23.762Z,18.71
2022-09-21T10:18:56.275Z,18.85
2022-09-21T10:21:26.616Z,19.01
2022-09-21T10:24:00.193Z,19.15
2022-09-21T10:26:33.611Z,19.31
2022-09-21T10:29:03.706Z,19.50
2022-09-21T10:31:33.401Z,19.65
2022-09-21T10:34:14.411Z,19.80
2022-09-21T10:36:51.654Z,19.96
2022-09-21T10:39:27.426Z,20.07
2022-09-21T10:42:05.144Z,20.19
2022-09-21T10:44:42.506Z,20.31
2022-09-21T10:47:24.927Z,20.43
2022-09-21T10:49:55.708Z,20.57
2022-09-21T10:52:32.463Z,20.65
2022-09-21T10:55:01.054Z,20.76
2022-09-21T10:57:30.723Z,20.84
2022-09-21T10:59:59.795Z,20.88
2022-09-21T11:02:38.592Z,20.98
2022-09-21T11:05:16.450Z,21.08
2022-09-21T11:07:51.154Z,21.16
2022-09-21T11:10:30.846Z,21.22
2022-09-21T11:13:19.294Z,21.30
2022-09-21T11:15:56.228Z,21.36
2022-09-21T11:18:37.675Z,21.49
2022-09-21T11:21:16.358Z,21.60
2022-09-21T11:23:56.474Z,21.75
2022-09-21T11:26:30.691Z,21.86
2022-09-21T11:29:07.015Z,21.94
2022-09-21T11:31:53.893Z,22.02
2022-09-21T11:35:17.265Z,22.09
2022-09-21T11:38:04.326Z,22.14
2022-09-21T11:41:01.829Z,22.19
2022-09-21T11:43:52.407Z,22.26
2022-09-21T11:46:31.078Z,22.32
2022-09-21T11:49:19.667Z,22.35
2022-09-21T11:52:09.196Z,22.39
2022-09-21T11:55:06.147Z,22.47
2022-09-21T11:57:42.454Z,22.51
2022-09-21T12:00:17.007Z,22.57
2022-09-21T12:03:32.176Z,22.57
2022-09-21T12:06:17.608Z,22.57
2022-09-21T12:09:04.887Z,22.64
2022-09-21T12:11:43.123Z,22.69
2022-09-21T12:14:23.979Z,22.73
2022-09-21T12:17:06.152Z,22.75
2022-09-21T12:19:45.744Z,22.79
2022-09-21T12:22:19.619Z,22.85
2022-09-21T12:24:53.556Z,22.85
2022-09-21T12:27:30.678Z,22.90
2022-09-21T12:30:03.883Z,22.91
2022-09-21T12:32:49.456Z,22.93
2022-09-21T12:35:23.950Z,22.94
2022-09-21T12:37:59.746Z,23.00
2022-09-21T12:40:39.533Z,23.05
2022-09-21T12:43:23.038Z,23.05
2022-09-21T12:45:59.409Z,23.08
2022-09-21T12:48:36.508Z,23.17
2022-09-21T12:51:15.555Z,23.20
2022-09-21T12:53:50.762Z,23.19
2022-09-21T12:56:37.559Z,23.05
2022-09-21T12:59:24.582Z,22.97
2022-09-21T13:02:00.696Z,22.85
2022-09-21T13:04:53.403Z,22.76
2022-09-21T13:07:55.373Z,22.63
2022-09-21T13:10:39.641Z,22.53
2022-09-21T13:13:19.894Z,22.38
2022-09-21T13:15:50.062Z,22.34
2022-09-21T13:18:25.225Z,22.33
2022-09-21T13:20:55.604Z,22.34
2022-09-21T13:23:29.568Z,22.37
2022-09-21T13:26:05.699Z,22.43
2022-09-21T13:29:06.687Z,22.41
2022-09-21T13:31:57.643Z,22.46
2022-09-21T13:34:29.816Z,22.50
2022-09-21T13:37:35.110Z,22.55
2022-09-21T13:40:40.885Z,22.52
2022-09-21T13:43:21.567Z,22.51
2022-09-21T13:45:57.883Z,22.54
2022-09-21T13:48:34.552Z,22.54
2022-09-21T13:51:10.248Z,22.57
2022-09-21T13:53:42.172Z,22.57
2022-09-21T13:56:20.334Z,22.57
2022-09-21T13:58:53.183Z,22.61
2022-09-21T14:04:26.484Z,22.59
2022-09-21T14:06:57.086Z,22.61
2022-09-21T14:09:29.621Z,22.64
2022-09-21T14:12:02.746Z,22.66
2022-09-21T14:14:37.216Z,22.67
2022-09-21T14:17:33.281Z,22.71
2022-09-21T14:20:02.294Z,22.71
2022-09-21T14:22:44.120Z,22.69
2022-09-21T14:25:50.787Z,22.67
2022-09-21T14:28:23.494Z,22.70
2022-09-21T14:30:57.866Z,22.70
2022-09-21T14:33:34.005Z,22.63
2022-09-21T14:36:08.743Z,22.59
2022-09-21T14:38:51.677Z,22.48
2022-09-21T14:41:25.497Z,22.41
2022-09-21T14:43:56.650Z,22.39
2022-09-21T14:46:59.642Z,22.32
2022-09-21T14:49:52.237Z,22.25
2022-09-21T14:52:33.114Z,22.19
2022-09-21T14:55:15.770Z,22.14
2022-09-21T14:58:21.615Z,22.06
2022-09-21T15:00:50.292Z,22.05
2022-09-21T15:03:44.840Z,21.95
2022-09-21T15:06:41.336Z,21.91
2022-09-21T15:09:54.510Z,21.83
2022-09-21T15:12:30.040Z,21.77
2022-09-21T15:15:21.944Z,21.74
2022-09-21T15:17:58.623Z,21.69
2022-09-21T15:20:29.559Z,21.60
2022-09-21T15:23:00.920Z,21.53
2022-09-21T15:25:33.483Z,21.47
2022-09-21T15:28:02.215Z,21.41
2022-09-21T15:30:33.789Z,21.31
2022-09-21T15:33:03.811Z,21.24
2022-09-21T15:35:33.959Z,21.15
2022-09-21T15:38:03.781Z,21.08
2022-09-21T15:40:36.324Z,21.00
2022-09-21T15:43:09.318Z,20.92
2022-09-21T15:45:51.389Z,20.83
2022-09-21T15:48:20.661Z,20.74
2022-09-21T15:50:52.987Z,20.63
2022-09-21T15:53:27.408Z,20.55
2022-09-21T15:55:55.818Z,20.45
2022-09-21T15:58:37.121Z,20.34
2022-09-21T16:01:11.340Z,20.23
2022-09-21T16:03:40.722Z,20.14
2022-09-21T16:06:27.676Z,20.04
2022-09-21T16:08:57.441Z,19.97
2022-09-21T16:11:37.825Z,19.87
2022-09-21T16:14:31.025Z,19.78
2022-09-21T16:17:27.592Z,19.66
2022-09-21T16:20:17.306Z,19.56
2022-09-21T16:22:48.453Z,19.51
2022-09-21T16:25:32.701Z,19.44
2022-09-21T16:28:04.473Z,19.38
2022-09-21T16:30:48.881Z,19.30
2022-09-21T16:33:43.961Z,19.20
2022-09-21T16:36:42.611Z,19.11
2022-09-21T16:39:17.367Z,19.05
2022-09-21T16:42:00.159Z,18.97
2022-09-21T16:44:35.403Z,18.91
2022-09-21T16:47:05.188Z,18.84
2022-09-21T16:49:35.642Z,18.77
2022-09-21T16:52:04.482Z,18.72
2022-09-21T16:54:32.767Z,18.64
2022-09-21T16:57:03.940Z,18.55
2022-09-21T16:59:33.242Z,18.45
2022-09-21T17:02:04.226Z,18.38
2022-09-21T17:04:36.094Z,18.27
2022-09-21T17:07:06.076Z,18.20
2022-09-21T17:09:38.434Z,18.10
2022-09-21T17:12:11.568Z,18.01
2022-09-21T17:14:46.699Z,17.91
2022-09-21T17:17:20.714Z,17.79
2022-09-21T17:19:50.880Z,17.71
2022-09-21T17:22:19.700Z,17.61
2022-09-21T17:24:52.124Z,17.49
2022-09-21T17:27:26.665Z,17.39
2022-09-21T17:29:56.476Z,17.28
2022-09-21T17:32:25.791Z,17.20
2022-09-21T17:35:01.659Z,17.11
2022-09-21T17:37:30.014Z,17.03
2022-09-21T17:39:59.211Z,16.93
2022-09-21T17:42:29.680Z,16.86
2022-09-21T17:45:16.775Z,16.77
2022-09-21T17:47:45.543Z,16.69
2022-09-21T17:50:24.334Z,16.60
2022-09-21T17:53:11.203Z,16.52
2022-09-21T17:55:40.565Z,16.43
2022-09-21T17:58:39.854Z,16.32
2022-09-21T18:01:15.585Z,16.25
2022-09-21T18:03:44.657Z,16.17
2022-09-21T18:06:14.527Z,16.09
2022-09-21T18:08:43.423Z,16.01
2022-09-21T18:11:31.807Z,15.90
2022-09-21T18:14:10.382Z,15.80
2022-09-21T18:16:54.266Z,15.69
2022-09-21T18:19:38.177Z,15.63
2022-09-21T18:22:18.454Z,15.55
2022-09-21T18:24:47.698Z,15.49
2022-09-21T18:27:18.655Z,15.43
2022-09-21T18:29:49.115Z,15.38
2022-09-21T18:32:43.799Z,15.30
2022-09-21T18:35:44.945Z,15.23
2022-09-21T18:38:25.688Z,15.16
2022-09-21T18:41:13.906Z,15.10
2022-09-21T18:43:59.169Z,15.03
2022-09-21T18:46:38.285Z,14.99
2022-09-21T18:49:17.238Z,14.93
2022-09-21T18:51:51.967Z,14.91
2022-09-21T18:54:24.092Z,14.86
2022-09-21T18:56:52.988Z,14.83
2022-09-21T18:59:22.158Z,14.77
2022-09-21T19:01:53.131Z,14.73
2022-09-21T19:04:22.312Z,14.70
2022-09-21T19:06:59.919Z,14.62
2022-09-21T19:09:44.546Z,14.55
2022-09-21T19:12:23.459Z,14.47
2022-09-21T19:15:03.798Z,14.44
2022-09-21T19:17:59.331Z,14.38
2022-09-21T19:20:44.504Z,14.32
2022-09-21T19:23:30.226Z,14.27
2022-09-21T19:26:05.862Z,14.22
2022-09-21T19:29:02.861Z,14.16
2022-09-21T19:31:33.084Z,14.10
2022-09-21T19:34:15.440Z,14.04
2022-09-21T19:36:44.973Z,13.98
2022-09-21T19:39:13.877Z,13.95
2022-09-21T19:41:59.436Z,13.89
2022-09-21T19:44:46.028Z,13.83
2022-09-21T19:47:25.767Z,13.78
2022-09-21T19:50:00.151Z,13.73
2022-09-21T19:52:32.901Z,13.69
2022-09-21T19:55:19.481Z,13.66
2022-09-21T19:58:02.631Z,13.63
2022-09-21T20:00:32.567Z,13.57
2022-09-21T20:03:07.268Z,13.50
2022-09-21T20:05:48.575Z,13.43
2022-09-21T20:08:24.009Z,13.39
2022-09-21T20:11:10.053Z,13.33
2022-09-21T20:13:57.779Z,13.28
2022-09-21T20:16:38.899Z,13.23
2022-09-21T20:19:20.968Z,13.17
2022-09-21T20:22:00.453Z,13.12
2022-09-21T20:24:34.738Z,13.08
2022-09-21T20:27:07.427Z,13.06
2022-09-21T20:29:35.812Z,13.04
2022-09-21T20:32:04.151Z,13.01
2022-09-21T20:34:32.785Z,12.97
2022-09-21T20:37:02.359Z,12.94
2022-09-21T20:39:30.633Z,12.92
2022-09-21T20:41:59.603Z,12.90
2022-09-21T20:44:27.838Z,12.88
2022-09-21T20:46:56.117Z,12.82
2022-09-21T20:49:24.380Z,12.79
2022-09-21T20:51:52.661Z,12.75
2022-09-21T20:54:23.230Z,12.71
2022-09-21T20:56:51.458Z,12.68
2022-09-21T20:59:19.717Z,12.65
2022-09-21T21:01:48.097Z,12.60
2022-09-21T21:04:16.646Z,12.56
2022-09-21T21:06:45.411Z,12.49
2022-09-21T21:09:13.663Z,12.46
2022-09-21T21:11:43.257Z,12.43
2022-09-21T21:14:11.509Z,12.39
2022-09-21T21:16:39.814Z,12.35
2022-09-21T21:19:08.155Z,12.32
2022-09-21T21:21:36.668Z,12.30
2022-09-21T21:24:22.753Z,12.26
2022-09-21T21:27:02.614Z,12.19
2022-09-21T21:29:32.015Z,12.16
2022-09-21T21:32:00.659Z,12.11
2022-09-21T21:34:29.222Z,12.08
2022-09-21T21:36:57.580Z,12.06
2022-09-21T21:39:25.895Z,12.04
2022-09-21T21:41:55.546Z,12.03
2022-09-21T21:44:23.934Z,12.00
2022-09-21T21:46:53.355Z,11.98
2022-09-21T21:49:21.903Z,11.96
2022-09-21T21:51:50.460Z,11.94
2022-09-21T21:54:19.463Z,11.92
2022-09-21T21:56:47.865Z,11.88
2022-09-21T21:59:18.128Z,11.84
2022-09-21T22:01:46.855Z,11.80
2022-09-21T22:04:15.662Z,11.76
2022-09-21T22:06:44.345Z,11.71
2022-09-21T22:09:14.743Z,11.67
2022-09-21T22:11:43.106Z,11.62
2022-09-21T22:14:11.667Z,11.56
2022-09-21T22:16:41.412Z,11.55
2022-09-21T22:19:10.222Z,11.52
2022-09-21T22:21:42.449Z,11.49
2022-09-21T22:24:11.366Z,11.45
2022-09-21T22:26:42.044Z,11.43
2022-09-21T22:29:13.162Z,11.40
2022-09-21T22:31:45.283Z,11.37
2022-09-21T22:34:14.770Z,11.34
2022-09-21T22:36:44.357Z,11.30
2022-09-21T22:39:13.623Z,11.27
2022-09-21T22:41:43.446Z,11.23
2022-09-21T22:44:12.287Z,11.21
2022-09-21T22:46:42.233Z,11.19
2022-09-21T22:49:10.568Z,11.19
2022-09-21T22:51:39.011Z,11.18
2022-09-21T22:54:07.750Z,11.16
2022-09-21T22:56:36.491Z,11.13
2022-09-21T22:59:06.529Z,11.10
2022-09-21T23:01:37.513Z,11.07
2022-09-21T23:04:09.905Z,11.04
2022-09-21T23:06:41.390Z,11.02
2022-09-21T23:09:14.042Z,10.99
2022-09-21T23:11:47.400Z,10.95
2022-09-21T23:14:16.745Z,10.93
2022-09-21T23:16:45.277Z,10.92
2022-09-21T23:19:16.419Z,10.90
2022-09-21T23:21:46.911Z,10.90
2022-09-21T23:24:15.383Z,10.87
2022-09-21T23:26:45.609Z,10.87
2022-09-21T23:29:16.571Z,10.85
2022-09-21T23:31:46.371Z,10.85
2022-09-21T23:34:17.323Z,10.80
2022-09-21T23:36:46.676Z,10.77
2022-09-21T23:39:16.609Z,10.74
2022-09-21T23:41:45.162Z,10.72
2022-09-21T23:44:13.697Z,10.69
2022-09-21T23:46:42.682Z,10.67
2022-09-21T23:49:11.318Z,10.64
2022-09-21T23:51:41.111Z,10.62
2022-09-21T23:54:09.825Z,10.58
2022-09-21T23:56:38.275Z,10.56
2022-09-21T23:59:06.569Z,10.53
